Time;durP1;ratioP1;P1;durP2;ratioP2;P2;SDS_P1;SDS_P2;PMS_P1;PMS_P2;Temp;Humidity;BMP_temperature;BMP_pressure;BME280_temperature;BME280_humidity;BME280_pressure;Samples;Min_cycle;Max_cycle;Signal;HPM_P1;HPM_P2
2021/09/11 00:02:00;;;;;;;2.65;2.45;;;;;;;24.15;45.65;101505.00;143723;704;47922;-61
2021/09/11 00:04:27;;;;;;;3.60;2.50;;;;;;;24.16;46.54;101506.66;143722;728;50002;-60
2021/09/11 00:06:54;;;;;;;6.85;2.85;;;;;;;24.15;45.78;101504.19;143718;658;50004;-61
2021/09/11 00:09:21;;;;;;;6.43;2.45;;;;;;;24.17;45.63;101502.00;143726;593;47006;-61
2021/09/11 00:11:48;;;;;;;4.90;2.58;;;;;;;24.19;45.49;101502.53;143724;625;48010;-61
2021/09/11 00:14:15;;;;;;;3.87;2.50;;;;;;;24.17;46.18;101510.22;143724;586;47013;-61
2021/09/11 00:16:42;;;;;;;4.07;2.47;;;;;;;24.15;45.92;101512.41;143714;619;51010;-61
2021/09/11 00:19:13;;;;;;;6.30;3.22;;;;;;;24.13;45.67;101509.13;143729;650;47006;-61
2021/09/11 00:21:40;;;;;;;3.72;2.50;;;;;;;24.11;45.25;101512.13;143724;587;47010;-60
2021/09/11 00:24:07;;;;;;;4.22;2.62;;;;;;;24.10;45.64;101504.97;143726;577;47002;-60
2021/09/11 00:26:34;;;;;;;3.45;2.12;;;;;;;24.08;45.24;101487.97;143723;566;46008;-61
2021/09/11 00:29:01;;;;;;;2.92;2.45;;;;;;;24.06;45.79;101496.47;143728;574;47005;-60
2021/09/11 00:31:31;;;;;;;3.50;2.50;;;;;;;24.06;45.40;101501.16;143724;589;47021;-61
2021/09/11 00:33:59;;;;;;;2.92;2.40;;;;;;;24.01;45.77;101493.72;143725;707;47004;-61
2021/09/11 00:36:26;;;;;;;3.83;2.40;;;;;;;23.98;45.94;101497.00;143720;579;48004;-60
2021/09/11 00:38:53;;;;;;;4.12;2.60;;;;;;;23.97;45.98;101494.53;143726;718;47002;-61
2021/09/11 00:41:21;;;;;;;5.97;2.53;;;;;;;23.93;46.49;101495.03;143714;569;51004;-61
2021/09/11 00:43:50;;;;;;;3.17;2.42;;;;;;;23.90;46.82;101489.25;143723;573;47014;-60
2021/09/11 00:46:17;;;;;;;4.60;2.70;;;;;;;23.88;47.16;101489.53;143725;580;46000;-61
2021/09/11 00:48:45;;;;;;;3.35;2.78;;;;;;;23.86;47.29;101499.97;143725;693;47004;-61
2021/09/11 00:51:13;;;;;;;5.32;2.92;;;;;;;23.86;47.18;101490.87;143710;576;52010;-61
2021/09/11 00:53:41;;;;;;;5.53;2.92;;;;;;;23.84;47.28;101499.41;143723;597;47004;-62
2021/09/11 00:56:08;;;;;;;3.45;2.62;;;;;;;23.83;47.52;101495.00;143724;573;46006;-60
2021/09/11 00:58:36;;;;;;;4.10;2.97;;;;;;;23.82;47.47;101498.03;143724;594;47002;-61
2021/09/11 01:01:04;;;;;;;5.37;2.70;;;;;;;23.80;47.66;101489.25;143723;567;47010;-61
2021/09/11 01:03:31;;;;;;;3.58;3.08;;;;;;;23.79;47.94;101499.38;143724;619;47002;-61
2021/09/11 01:05:58;;;;;;;6.85;3.30;;;;;;;23.77;48.04;101488.69;143717;727;47006;-60
2021/09/11 01:08:28;;;;;;;5.62;3.10;;;;;;;23.72;48.37;101488.66;143725;693;47004;-60
2021/09/11 01:10:55;;;;;;;5.07;3.22;;;;;;;23.67;48.59;101494.13;143725;566;46020;-62
2021/09/11 01:13:23;;;;;;;7.00;3.53;;;;;;;23.66;48.69;101500.69;143723;578;48002;-60
2021/09/11 01:15:50;;;;;;;7.45;3.62;;;;;;;23.65;48.50;101501.78;143723;723;48004;-61
2021/09/11 01:18:17;;;;;;;6.82;4.22;;;;;;;23.65;48.79;101509.19;143728;694;47002;-61
2021/09/11 01:20:44;;;;;;;5.93;4.10;;;;;;;23.61;48.93;101504.25;143725;609;47008;-61
2021/09/11 01:23:12;;;;;;;5.95;4.03;;;;;;;23.60;49.07;101508.09;143723;588;47002;-61
2021/09/11 01:25:39;;;;;;;8.88;3.70;;;;;;;23.62;49.25;101508.63;143706;575;50008;-61
2021/09/11 01:28:06;;;;;;;7.35;4.20;;;;;;;23.63;49.15;101501.25;143728;566;47004;-62
2021/09/11 01:30:34;;;;;;;7.15;4.03;;;;;;;23.61;49.41;101496.03;143722;576;47008;-61
2021/09/11 01:33:01;;;;;;;6.07;3.83;;;;;;;23.61;49.76;101503.44;143723;602;47013;-61
2021/09/11 01:35:28;;;;;;;5.15;4.05;;;;;;;23.60;49.56;101501.78;143723;588;46000;-60
2021/09/11 01:37:55;;;;;;;8.73;4.30;;;;;;;23.60;49.36;101496.31;143726;567;47006;-61
2021/09/11 01:40:23;;;;;;;6.47;4.47;;;;;;;23.58;49.38;101491.06;143710;674;49020;-60
2021/09/11 01:42:50;;;;;;;5.62;4.07;;;;;;;23.56;49.33;101496.00;143724;600;47004;-60
2021/09/11 01:45:19;;;;;;;8.25;4.75;;;;;;;23.57;49.82;101483.94;143723;622;46926;-61
2021/09/11 01:47:48;;;;;;;8.63;4.62;;;;;;;23.57;49.45;101488.59;143724;581;48004;-61
2021/09/11 01:50:19;;;;;;;10.90;5.45;;;;;;;23.56;49.60;101485.03;143717;582;51002;-62
2021/09/11 01:52:47;;;;;;;10.07;5.00;;;;;;;23.55;49.60;101475.19;143724;577;47002;-60
2021/09/11 01:55:16;;;;;;;13.25;6.00;;;;;;;23.54;49.46;101481.75;143725;589;46004;-61
2021/09/11 01:57:46;;;;;;;13.07;5.72;;;;;;;23.51;48.78;101485.03;143726;664;47002;-60
2021/09/11 02:00:21;;;;;;;9.18;4.12;;;;;;;23.48;48.49;101482.81;143720;598;48008;-60
2021/09/11 02:02:48;;;;;;;7.80;4.25;;;;;;;23.45;48.40;101481.44;143721;576;47006;-61
2021/09/11 02:05:16;;;;;;;7.25;4.30;;;;;;;23.40;48.87;101481.41;143722;578;46925;-61
2021/09/11 02:07:44;;;;;;;9.45;4.47;;;;;;;23.40;48.76;101481.41;143724;586;47004;-61
2021/09/11 02:10:12;;;;;;;5.65;4.03;;;;;;;23.40;48.93;101483.31;143724;689;47010;-60
2021/09/11 02:12:40;;;;;;;7.82;4.62;;;;;;;23.40;49.08;101480.56;143724;574;47004;-61
2021/09/11 02:15:07;;;;;;;8.18;4.07;;;;;;;23.39;49.13;101479.75;143721;614;48002;-60
2021/09/11 02:17:35;;;;;;;10.90;4.65;;;;;;;23.39;49.19;101482.50;143724;643;47006;-61
2021/09/11 02:20:03;;;;;;;7.18;4.53;;;;;;;23.39;49.35;101484.41;143723;581;47012;-60
2021/09/11 02:22:30;;;;;;;9.25;5.15;;;;;;;23.40;48.92;101483.31;143722;572;48002;-60
2021/09/11 02:24:57;;;;;;;15.52;5.75;;;;;;;23.40;48.67;101486.03;143719;574;48014;-60
2021/09/11 02:27:25;;;;;;;10.63;5.18;;;;;;;23.40;48.79;101484.16;143724;707;48002;-61
2021/09/11 02:29:52;;;;;;;8.27;4.80;;;;;;;23.41;48.51;101490.44;143717;573;47010;-60
2021/09/11 02:32:19;;;;;;;5.55;3.78;;;;;;;23.41;48.23;101482.22;143725;588;47004;-60
2021/09/11 02:34:46;;;;;;;4.87;3.12;;;;;;;23.39;48.45;101485.22;143722;577;46006;-61
2021/09/11 02:37:14;;;;;;;8.32;3.70;;;;;;;23.41;48.66;101483.06;143725;606;47004;-60
2021/09/11 02:39:44;;;;;;;6.50;3.80;;;;;;;23.40;48.96;101486.03;143722;615;47010;-60
2021/09/11 02:42:14;;;;;;;5.60;3.97;;;;;;;23.39;49.24;101485.22;143724;570;47004;-61
2021/09/11 02:44:41;;;;;;;5.47;3.85;;;;;;;23.39;49.09;101479.75;143724;597;46003;-60
2021/09/11 02:47:09;;;;;;;6.78;3.87;;;;;;;23.38;49.04;101485.50;143724;693;48002;-61
2021/09/11 02:49:36;;;;;;;10.23;3.35;;;;;;;23.35;48.99;101481.37;143719;601;47010;-60
2021/09/11 02:52:03;;;;;;;3.92;3.40;;;;;;;23.33;48.28;101488.22;143721;592;48004;-60
2021/09/11 02:54:31;;;;;;;4.32;3.30;;;;;;;23.34;48.85;101481.66;143727;667;45926;-61
2021/09/11 02:56:58;;;;;;;4.00;3.53;;;;;;;23.33;48.45;101483.56;143724;576;47006;-61
2021/09/11 02:59:26;;;;;;;8.88;3.08;;;;;;;23.35;48.42;101478.63;143721;600;48008;-61
2021/09/11 03:01:53;;;;;;;6.47;3.10;;;;;;;23.35;48.42;101475.88;143718;598;47004;-61
2021/09/11 03:04:20;;;;;;;5.05;3.22;;;;;;;23.30;48.96;101467.63;143721;663;48008;-60
2021/09/11 03:06:47;;;;;;;5.22;3.50;;;;;;;23.31;48.44;101472.03;143725;579;48002;-61
2021/09/11 03:09:15;;;;;;;3.92;3.00;;;;;;;23.34;48.45;101479.72;143723;647;47010;-61
2021/09/11 03:11:42;;;;;;;8.27;3.75;;;;;;;23.34;48.11;101479.72;143723;595;47002;-61
2021/09/11 03:14:09;;;;;;;6.60;3.12;;;;;;;23.32;48.44;101479.16;143725;597;46924;-61
2021/09/11 03:16:37;;;;;;;5.30;3.30;;;;;;;23.27;48.66;101474.47;143725;674;47014;-60
2021/09/11 03:19:04;;;;;;;4.72;2.80;;;;;;;23.27;48.70;101476.41;143722;608;48008;-61
2021/09/11 03:21:31;;;;;;;6.53;3.50;;;;;;;23.29;48.62;101483.25;143724;573;47002;-61
2021/09/11 03:23:59;;;;;;;7.57;3.67;;;;;;;23.28;49.01;101480.81;143718;741;47002;-61
2021/09/11 03:26:26;;;;;;;5.30;3.17;;;;;;;23.27;48.88;101482.69;143728;572;46010;-61
2021/09/11 03:28:54;;;;;;;6.28;3.22;;;;;;;23.25;48.43;101482.13;143720;574;49020;-60
2021/09/11 03:31:21;;;;;;;5.12;3.40;;;;;;;23.25;48.32;101486.81;143724;575;47002;-61
2021/09/11 03:33:48;;;;;;;5.10;3.72;;;;;;;23.22;48.37;101496.38;143720;572;47006;-60
2021/09/11 03:36:15;;;;;;;6.60;3.10;;;;;;;23.22;48.72;101498.28;143727;599;48006;-60
2021/09/11 03:38:42;;;;;;;5.82;3.05;;;;;;;23.20;49.05;101492.22;143721;625;48010;-61
2021/09/11 03:41:10;;;;;;;6.35;3.10;;;;;;;23.16;48.98;101489.19;143723;643;47002;-61
2021/09/11 03:43:37;;;;;;;4.55;2.75;;;;;;;23.15;48.93;101484.81;143725;589;47003;-60
2021/09/11 03:46:04;;;;;;;5.57;3.80;;;;;;;23.13;49.39;101496.00;143727;617;47000;-61
2021/09/11 03:48:31;;;;;;;7.22;4.07;;;;;;;23.11;49.64;101484.50;143723;603;47010;-61
2021/09/11 03:50:58;;;;;;;5.70;3.30;;;;;;;23.09;49.47;101492.16;143723;584;47005;-61
2021/09/11 03:53:25;;;;;;;5.57;3.17;;;;;;;23.09;49.80;101494.91;143724;604;46002;-60
2021/09/11 03:55:52;;;;;;;5.68;3.50;;;;;;;23.08;49.21;101486.94;143721;573;48013;-60
2021/09/11 03:58:19;;;;;;;6.47;3.37;;;;;;;23.06;49.64;101479.00;143719;568;48010;-60
2021/09/11 04:00:46;;;;;;;11.50;4.10;;;;;;;23.06;49.29;101491.84;143722;611;48006;-61
2021/09/11 04:03:13;;;;;;;13.88;4.15;;;;;;;23.05;49.04;101488.31;143724;566;46002;-60
2021/09/11 04:05:40;;;;;;;7.57;4.00;;;;;;;23.05;49.48;101485.56;143725;735;49006;-61
2021/09/11 04:08:07;;;;;;;8.05;3.55;;;;;;;23.04;49.39;101483.91;143723;601;47010;-60
2021/09/11 04:10:34;;;;;;;8.48;3.90;;;;;;;23.03;49.77;101482.25;143722;624;48002;-61
2021/09/11 04:13:02;;;;;;;9.75;4.12;;;;;;;23.04;49.89;101486.66;143723;577;47002;-61
2021/09/11 04:15:29;;;;;;;9.48;3.37;;;;;;;23.06;49.74;101483.63;143726;658;47004;-61
2021/09/11 04:17:56;;;;;;;9.27;3.50;;;;;;;23.04;49.03;101489.38;143724;627;47010;-60
2021/09/11 04:20:23;;;;;;;9.52;4.05;;;;;;;23.01;48.99;101484.44;143724;622;48012;-60
2021/09/11 04:22:51;;;;;;;6.78;3.30;;;;;;;22.99;49.15;101484.72;143726;569;46002;-60
2021/09/11 04:25:18;;;;;;;8.23;4.22;;;;;;;22.93;49.52;101483.00;143724;576;47006;-61
2021/09/11 04:27:46;;;;;;;13.43;4.40;;;;;;;22.93;49.61;101477.53;143723;663;47008;-60
2021/09/11 04:30:13;;;;;;;9.00;4.43;;;;;;;22.92;49.78;101484.09;143724;582;47004;-61
2021/09/11 04:32:40;;;;;;;14.77;3.78;;;;;;;22.95;49.32;101477.25;143725;577;46006;-60
2021/09/11 04:35:07;;;;;;;7.10;4.20;;;;;;;22.94;49.76;101479.19;143719;569;47006;-61
2021/09/11 04:37:35;;;;;;;9.95;4.45;;;;;;;22.94;50.09;101476.44;143722;595;47010;-60
2021/09/11 04:40:02;;;;;;;9.32;4.10;;;;;;;22.93;50.21;101477.53;143719;609;47002;-61
2021/09/11 04:42:29;;;;;;;8.38;3.78;;;;;;;22.93;49.96;101484.94;143726;579;45923;-61
2021/09/11 04:44:57;;;;;;;11.93;4.15;;;;;;;22.95;50.33;101488.22;143718;582;49002;-60
2021/09/11 04:47:24;;;;;;;8.13;4.53;;;;;;;22.94;49.81;101484.66;143726;614;46010;-60
2021/09/11 04:49:51;;;;;;;9.98;3.80;;;;;;;22.97;50.36;101481.41;143723;628;47004;-60
2021/09/11 04:52:19;;;;;;;8.82;3.83;;;;;;;23.00;50.59;101494.59;143726;572;45926;-60
2021/09/11 04:54:47;;;;;;;12.10;4.85;;;;;;;23.01;50.39;101498.13;143725;603;47004;-61
2021/09/11 04:57:14;;;;;;;10.05;4.78;;;;;;;23.05;50.32;101495.69;143724;585;47012;-60
2021/09/11 04:59:41;;;;;;;8.20;3.92;;;;;;;23.04;49.56;101492.13;143723;572;47013;-61
2021/09/11 05:02:09;;;;;;;8.45;4.30;;;;;;;23.08;49.73;101492.41;143723;595;47002;-60
2021/09/11 05:04:36;;;;;;;11.45;5.55;;;;;;;23.13;49.99;101495.19;143725;594;47006;-60
2021/09/11 05:07:03;;;;;;;15.85;5.53;;;;;;;23.15;50.90;101498.50;143725;618;47027;-61
2021/09/11 05:09:31;;;;;;;9.43;5.28;;;;;;;23.17;51.11;101497.13;143715;620;48002;-61
2021/09/11 05:12:03;;;;;;;11.00;5.57;;;;;;;23.19;51.23;101502.38;143725;578;46004;-61
2021/09/11 05:14:30;;;;;;;6.78;5.12;;;;;;;23.19;50.92;101502.38;143721;637;48004;-62
2021/09/11 05:16:58;;;;;;;13.85;5.55;;;;;;;23.21;50.70;101499.38;143723;715;47008;-61
2021/09/11 05:19:25;;;;;;;10.90;5.35;;;;;;;23.25;50.66;101503.25;143715;567;49002;-62
2021/09/11 05:21:52;;;;;;;6.97;5.12;;;;;;;23.30;50.07;101511.47;143726;646;45924;-60
2021/09/11 05:24:19;;;;;;;11.20;5.12;;;;;;;23.31;49.98;101503.00;143726;593;47016;-61
2021/09/11 05:26:47;;;;;;;8.80;4.87;;;;;;;23.35;49.50;101506.03;143723;596;47009;-61
2021/09/11 05:29:14;;;;;;;14.80;5.03;;;;;;;23.39;49.42;101509.91;143720;580;48002;-61
2021/09/11 05:31:41;;;;;;;9.98;4.80;;;;;;;23.43;49.12;101507.44;143725;595;45923;-60
2021/09/11 05:34:08;;;;;;;6.50;4.80;;;;;;;23.46;49.50;101504.19;143728;593;47005;-61
2021/09/11 05:36:36;;;;;;;11.88;5.22;;;;;;;23.50;49.27;101508.03;143725;572;47008;-61
2021/09/11 05:39:04;;;;;;;9.15;5.35;;;;;;;23.54;49.38;101505.59;143725;582;46004;-61
2021/09/11 05:41:31;;;;;;;7.22;4.87;;;;;;;23.59;49.33;101506.44;143726;568;46006;-61
2021/09/11 05:43:59;;;;;;;7.68;4.97;;;;;;;23.64;48.74;101502.91;143720;599;49012;-62
2021/09/11 05:46:26;;;;;;;5.93;4.37;;;;;;;23.67;48.49;101507.84;143721;614;47010;-62
2021/09/11 05:48:53;;;;;;;6.18;5.00;;;;;;;23.70;48.37;101512.78;143719;624;47006;-60
2021/09/11 05:51:21;;;;;;;7.10;4.53;;;;;;;23.74;48.94;101500.19;143722;575;47002;-60
2021/09/11 05:53:49;;;;;;;7.40;4.82;;;;;;;23.80;48.28;101502.97;143727;590;47002;-60
2021/09/11 05:56:16;;;;;;;8.70;4.05;;;;;;;23.86;48.87;101507.34;143725;637;47011;-61
2021/09/11 05:58:43;;;;;;;6.37;3.90;;;;;;;23.90;48.27;101514.78;143724;684;47013;-60
2021/09/11 06:01:10;;;;;;;6.62;4.62;;;;;;;23.96;48.23;101518.37;143724;651;46006;-60
2021/09/11 06:03:38;;;;;;;7.05;4.32;;;;;;;24.01;47.96;101517.59;143728;575;47000;-60
2021/09/11 06:06:06;;;;;;;8.98;4.32;;;;;;;24.06;47.78;101521.16;143723;657;47011;-62
2021/09/11 06:08:35;;;;;;;8.10;3.97;;;;;;;24.15;46.66;101515.16;143722;592;48004;-61
2021/09/11 06:11:01;;;;;;;10.32;3.83;;;;;;;24.19;47.32;101513.50;143727;709;46002;-62
2021/09/11 06:13:28;;;;;;;5.87;3.72;;;;;;;24.22;46.71;101510.22;143726;586;47000;-62
2021/09/11 06:15:55;;;;;;;8.00;5.10;;;;;;;24.30;46.85;101506.12;143725;582;47010;-62
2021/09/11 06:18:22;;;;;;;5.82;4.20;;;;;;;24.34;47.96;101502.56;143715;697;48010;-62
2021/09/11 06:20:49;;;;;;;7.12;4.07;;;;;;;24.40;47.90;101502.56;143722;634;47002;-62
2021/09/11 06:23:17;;;;;;;5.75;3.40;;;;;;;24.47;46.22;101503.12;143723;663;48002;-61
2021/09/11 06:25:44;;;;;;;8.23;3.40;;;;;;;24.51;46.31;101501.50;143725;594;47010;-61
2021/09/11 06:28:11;;;;;;;4.72;3.42;;;;;;;24.56;45.89;101503.41;143723;716;47004;-62
2021/09/11 06:30:38;;;;;;;4.53;2.95;;;;;;;24.59;45.63;101497.38;143725;667;45925;-60
2021/09/11 06:33:06;;;;;;;4.82;2.95;;;;;;;24.65;45.71;101499.00;143727;598;47004;-62
2021/09/11 06:35:33;;;;;;;5.47;3.58;;;;;;;24.71;45.68;101502.62;143722;631;47011;-61
2021/09/11 06:38:00;;;;;;;4.68;3.05;;;;;;;24.75;45.45;101510.03;143725;660;47002;-62
2021/09/11 06:40:28;;;;;;;8.57;3.62;;;;;;;24.80;45.78;101509.19;143727;695;46002;-62
2021/09/11 06:42:55;;;;;;;6.25;3.50;;;;;;;24.85;45.68;101511.94;143728;582;47004;-62
2021/09/11 06:45:22;;;;;;;3.97;3.25;;;;;;;24.88;46.47;101508.66;143727;742;47012;-61
2021/09/11 06:47:49;;;;;;;7.68;3.67;;;;;;;24.94;46.39;101503.97;143717;756;50004;-62
2021/09/11 06:50:17;;;;;;;6.75;3.78;;;;;;;25.02;46.21;101508.09;143728;577;45924;-61
2021/09/11 06:52:44;;;;;;;7.18;4.03;;;;;;;25.06;46.23;101507.25;143725;586;48004;-63
2021/09/11 06:55:11;;;;;;;9.18;4.15;;;;;;;25.13;45.92;101506.94;143725;573;47008;-61
2021/09/11 06:57:38;;;;;;;8.30;4.22;;;;;;;25.16;45.65;101506.41;143721;602;49003;-62
2021/09/11 07:00:08;;;;;;;9.38;4.37;;;;;;;25.22;46.66;101509.94;143723;575;47006;-61
2021/09/11 07:02:34;;;;;;;8.13;4.37;;;;;;;25.27;46.80;101510.75;143728;576;47002;-62
2021/09/11 07:05:01;;;;;;;9.07;4.68;;;;;;;25.33;46.67;101511.56;143724;702;47025;-62
2021/09/11 07:07:28;;;;;;;10.70;4.95;;;;;;;25.37;46.58;101512.66;143724;616;48004;-61
2021/09/11 07:09:55;;;;;;;8.18;4.45;;;;;;;25.42;47.00;101514.59;143727;710;46004;-62
2021/09/11 07:12:23;;;;;;;9.15;4.37;;;;;;;25.48;47.69;101518.97;143727;573;48002;-61
2021/09/11 07:14:50;;;;;;;11.25;4.22;;;;;;;25.54;47.70;101517.03;143724;575;47008;-62
2021/09/11 07:17:17;;;;;;;8.25;5.40;;;;;;;25.56;48.14;101517.56;143720;684;48004;-62
2021/09/11 07:19:43;;;;;;;10.10;5.70;;;;;;;25.58;48.05;101515.37;143720;600;50007;-62
2021/09/11 07:22:10;;;;;;;9.50;5.82;;;;;;;25.65;47.60;101515.91;143726;614;47004;-61
2021/09/11 07:24:37;;;;;;;13.57;6.10;;;;;;;25.71;47.33;101514.75;143725;656;47010;-62
2021/09/11 07:27:04;;;;;;;7.47;5.85;;;;;;;25.77;46.67;101512.00;143725;689;47016;-60
2021/09/11 07:29:31;;;;;;;6.97;4.60;;;;;;;25.79;45.57;101512.53;143724;574;46007;-61
2021/09/11 07:32:01;;;;;;;5.35;3.97;;;;;;;25.73;45.70;101506.25;143725;654;48004;-61
2021/09/11 07:34:28;;;;;;;6.32;4.32;;;;;;;25.80;45.45;101505.94;143722;589;48008;-61
2021/09/11 07:36:55;;;;;;;4.28;3.75;;;;;;;25.87;45.46;101501.75;143725;567;48002;-61
2021/09/11 07:39:22;;;;;;;5.70;4.00;;;;;;;25.95;44.92;101503.09;143724;603;46002;-62
2021/09/11 07:41:49;;;;;;;5.68;3.62;;;;;;;25.98;45.53;101510.78;143726;652;47005;-61
2021/09/11 07:44:17;;;;;;;4.30;3.58;;;;;;;26.01;44.83;101504.72;143723;578;48033;-61
2021/09/11 07:46:43;;;;;;;4.37;3.20;;;;;;;25.93;43.59;101507.25;143727;712;46008;-61
2021/09/11 07:49:11;;;;;;;11.38;3.40;;;;;;;25.89;43.89;101517.97;143724;599;47006;-61
2021/09/11 07:51:38;;;;;;;5.22;3.45;;;;;;;25.97;43.85;101509.13;143723;577;47004;-61
2021/09/11 07:54:06;;;;;;;8.75;4.03;;;;;;;26.05;44.27;101518.72;143724;649;48008;-62
2021/09/11 07:56:33;;;;;;;6.65;3.60;;;;;;;26.09;44.68;101519.81;143725;567;47004;-62
2021/09/11 07:59:00;;;;;;;4.60;3.15;;;;;;;26.08;44.75;101520.91;143727;634;45928;-62
2021/09/11 08:01:27;;;;;;;5.87;3.78;;;;;;;26.09;44.61;101522.56;143725;584;48002;-60
2021/09/11 08:03:54;;;;;;;3.95;3.40;;;;;;;26.10;44.47;101518.72;143723;572;47010;-61
2021/09/11 08:06:21;;;;;;;5.93;3.85;;;;;;;26.18;44.45;101520.06;143723;576;47004;-61
2021/09/11 08:08:49;;;;;;;7.22;4.00;;;;;;;26.20;44.94;101519.78;143725;603;46002;-61
2021/09/11 08:11:16;;;;;;;4.85;3.55;;;;;;;26.25;44.48;101525.25;143725;634;48002;-62
2021/09/11 08:13:43;;;;;;;7.50;4.85;;;;;;;26.36;45.51;101526.81;143724;585;47010;-62
2021/09/11 08:16:11;;;;;;;6.07;3.80;;;;;;;26.32;43.78;101520.22;143725;596;47013;-62
2021/09/11 08:18:38;;;;;;;5.47;3.92;;;;;;;26.28;43.77;101513.66;143727;573;45924;-62
2021/09/11 08:21:05;;;;;;;6.20;3.83;;;;;;;26.46;43.82;101515.75;143720;576;50004;-62
2021/09/11 08:23:32;;;;;;;4.93;3.40;;;;;;;26.54;40.83;101518.97;143727;631;47008;-62
2021/09/11 08:26:02;;;;;;;9.60;4.00;;;;;;;26.61;40.65;101522.22;143725;615;47002;-63
2021/09/11 08:28:29;;;;;;;7.80;3.90;;;;;;;26.63;41.39;101520.81;143727;586;46004;-62
2021/09/11 08:30:56;;;;;;;6.45;3.55;;;;;;;26.68;41.87;101528.22;143728;568;48002;-61
2021/09/11 08:33:23;;;;;;;8.75;3.30;;;;;;;26.55;36.32;101515.94;143724;580;48009;-62
2021/09/11 08:35:50;;;;;;;6.18;3.50;;;;;;;26.60;38.58;101520.59;143723;567;50004;-61
2021/09/11 08:38:17;;;;;;;6.93;4.00;;;;;;;26.78;40.17;101521.81;143726;578;48020;-62
2021/09/11 08:40:44;;;;;;;7.40;3.83;;;;;;;26.89;39.51;101517.06;143728;591;47002;-60
2021/09/11 08:43:16;;;;;;;4.70;2.58;;;;;;;26.83;33.34;101515.47;143726;614;47010;-62
2021/09/11 08:45:43;;;;;;;5.05;3.20;;;;;;;26.89;33.45;101506.88;143725;577;48002;-61
2021/09/11 08:48:11;;;;;;;8.45;3.50;;;;;;;27.09;35.08;101505.03;143727;620;45923;-62
2021/09/11 08:50:38;;;;;;;3.35;2.80;;;;;;;27.22;34.62;101501.56;143728;595;48002;-62
2021/09/11 08:53:05;;;;;;;4.22;2.55;;;;;;;27.28;35.18;101494.03;143724;632;48010;-61
2021/09/11 08:55:34;;;;;;;5.90;3.40;;;;;;;27.38;35.22;101499.44;143716;694;49009;-62
2021/09/11 08:58:05;;;;;;;5.62;3.30;;;;;;;27.34;35.59;101489.28;143720;586;50004;-62
2021/09/11 09:00:46;;;;;;;6.05;2.90;;;;;;;27.43;34.78;101494.97;143729;618;47004;-62
2021/09/11 09:03:50;;;;;;;5.07;3.08;;;;;;;27.48;36.49;101494.94;143714;584;50008;-60
2021/09/11 09:06:27;;;;;;;3.53;3.22;;;;;;;27.61;35.44;101490.66;143725;590;47002;-62
2021/09/11 09:09:15;;;;;;;6.37;3.33;;;;;;;27.53;36.88;101483.84;143727;584;47002;-62
2021/09/11 09:11:44;;;;;;;6.37;3.30;;;;;;;27.59;36.86;101492.88;143721;593;50011;-62
2021/09/11 09:14:17;;;;;;;5.18;3.30;;;;;;;27.72;37.09;101475.59;143727;616;48921;-63
2021/09/11 09:16:46;;;;;;;4.33;3.23;;;;;;;27.84;36.66;101481.47;143726;575;47002;-61
2021/09/11 09:19:20;;;;;;;5.55;3.03;;;;;;;27.89;36.33;101474.25;143727;567;45928;-61
2021/09/11 09:21:52;;;;;;;6.18;3.80;;;;;;;28.00;36.54;101464.69;143728;593;48004;-62
2021/09/11 09:24:29;;;;;;;4.85;3.28;;;;;;;28.14;35.40;101465.62;143724;566;48010;-62
2021/09/11 09:26:59;;;;;;;6.97;3.20;;;;;;;28.17;35.03;101466.12;143727;637;48004;-62
2021/09/11 09:29:27;;;;;;;7.22;3.97;;;;;;;28.16;35.62;101465.31;143727;581;46002;-62
2021/09/11 09:31:56;;;;;;;6.43;3.12;;;;;;;28.08;36.62;101453.00;143729;689;47014;-62
2021/09/11 09:34:37;;;;;;;7.47;3.10;;;;;;;28.17;35.07;101442.09;143722;572;47008;-61
2021/09/11 09:37:06;;;;;;;4.18;3.15;;;;;;;28.30;35.62;101437.75;143723;573;49004;-62
2021/09/11 09:39:45;;;;;;;6.40;3.20;;;;;;;28.38;34.66;101444.53;143729;586;46004;-62
2021/09/11 09:42:13;;;;;;;5.57;4.15;;;;;;;28.43;34.00;101452.72;143715;629;48006;-61
2021/09/11 09:44:46;;;;;;;5.07;3.40;;;;;;;28.50;34.23;101442.09;143727;614;47010;-61
2021/09/11 09:47:15;;;;;;;3.70;3.30;;;;;;;28.50;34.99;101452.34;143726;576;47002;-62
2021/09/11 09:50:02;;;;;;;4.22;3.50;;;;;;;28.56;35.11;101435.38;143729;654;45924;-62
2021/09/11 09:52:30;;;;;;;4.25;3.05;;;;;;;28.52;32.43;101430.75;143727;590;48002;-61
2021/09/11 09:54:58;;;;;;;4.45;3.83;;;;;;;28.50;34.09;101425.53;143726;625;47010;-61
2021/09/11 09:57:25;;;;;;;6.07;3.05;;;;;;;28.57;34.01;101425.12;143711;583;49004;-63
2021/09/11 09:59:54;;;;;;;6.32;2.95;;;;;;;28.72;34.91;101412.97;143727;596;45925;-61
2021/09/11 10:02:21;;;;;;;4.40;3.40;;;;;;;28.81;34.84;101411.16;143724;613;48008;-62
2021/09/11 10:04:55;;;;;;;5.40;3.37;;;;;;;28.89;33.54;101413.22;143725;591;47010;-62
2021/09/11 10:07:24;;;;;;;4.70;2.92;;;;;;;28.92;33.53;101411.78;143722;572;47002;-61
2021/09/11 10:09:54;;;;;;;4.82;3.22;;;;;;;28.98;33.71;101415.25;143729;633;45924;-61
2021/09/11 10:12:39;;;;;;;7.35;3.40;;;;;;;29.08;33.95;101403.16;143719;680;48002;-62
2021/09/11 10:15:27;;;;;;;5.60;3.60;;;;;;;29.15;34.61;101401.62;143725;588;47010;-62
2021/09/11 10:17:56;;;;;;;4.35;3.33;;;;;;;29.20;34.52;101407.06;143718;602;50002;-62
2021/09/11 10:20:24;;;;;;;4.28;3.33;;;;;;;29.29;35.28;101406.34;143727;595;45924;-62
2021/09/11 10:23:08;;;;;;;4.70;3.67;;;;;;;29.26;35.96;101406.97;143728;588;47002;-62
2021/09/11 10:25:46;;;;;;;4.78;3.50;;;;;;;29.22;35.07;101408.69;143719;578;48008;-62
2021/09/11 10:28:21;;;;;;;4.37;3.35;;;;;;;29.14;35.18;101400.00;143718;594;48006;-62
2021/09/11 10:31:22;;;;;;;3.80;3.05;;;;;;;29.07;33.17;101402.38;143729;567;46002;-60
2021/09/11 10:33:52;;;;;;;6.95;3.95;;;;;;;29.06;32.54;101392.44;143728;725;48007;-62
2021/09/11 10:36:24;;;;;;;4.68;3.50;;;;;;;29.24;33.84;101403.69;143726;590;47010;-63
2021/09/11 10:38:52;;;;;;;4.50;3.20;;;;;;;29.34;34.14;101397.91;143725;620;47004;-62
2021/09/11 10:41:19;;;;;;;7.60;3.35;;;;;;;29.36;35.72;101387.41;143729;678;46003;-63
2021/09/11 10:44:23;;;;;;;5.70;3.12;;;;;;;29.37;35.25;101382.69;143727;590;49004;-61
2021/09/11 10:46:54;;;;;;;4.45;2.70;;;;;;;29.32;33.33;101383.56;143722;619;48011;-62
2021/09/11 10:49:37;;;;;;;3.37;2.75;;;;;;;29.27;31.40;101376.22;143725;629;47002;-62
2021/09/11 10:52:12;;;;;;;5.85;2.83;;;;;;;29.30;31.90;101375.59;143727;588;45927;-62
2021/09/11 10:54:41;;;;;;;10.27;3.03;;;;;;;29.37;34.81;101393.75;143728;732;47005;-61
2021/09/11 10:57:14;;;;;;;4.22;3.60;;;;;;;29.34;36.14;101386.84;143725;660;48008;-62
2021/09/11 10:59:45;;;;;;;3.70;2.40;;;;;;;29.29;32.97;101378.69;143725;594;48002;-62
2021/09/11 11:02:23;;;;;;;3.78;2.58;;;;;;;29.08;32.07;101373.59;143722;654;48011;-62
2021/09/11 11:05:10;;;;;;;4.82;2.92;;;;;;;29.12;35.64;101373.78;143722;668;49000;-62
2021/09/11 11:07:46;;;;;;;4.90;3.15;;;;;;;29.10;36.90;101382.41;143727;592;47010;-62
2021/09/11 11:10:17;;;;;;;4.18;3.10;;;;;;;29.19;37.02;101374.19;143725;600;47011;-62
2021/09/11 11:12:49;;;;;;;5.47;3.10;;;;;;;29.30;37.30;101370.06;143726;685;46006;-62
2021/09/11 11:15:22;;;;;;;4.95;2.75;;;;;;;29.41;36.69;101369.84;143727;591;48002;-62
2021/09/11 11:17:50;;;;;;;4.20;2.92;;;;;;;29.43;35.13;101362.91;143726;646;48011;-62
2021/09/11 11:20:29;;;;;;;4.10;2.75;;;;;;;29.50;36.40;101356.94;143721;664;48008;-62
2021/09/11 11:23:01;;;;;;;4.15;3.03;;;;;;;29.55;36.64;101355.97;143726;587;46002;-63
2021/09/11 11:25:38;;;;;;;6.22;3.03;;;;;;;29.52;36.72;101348.28;143728;714;47004;-62
2021/09/11 11:28:10;;;;;;;5.25;2.95;;;;;;;29.49;36.17;101345.03;143726;661;47008;-62
2021/09/11 11:30:39;;;;;;;3.92;2.90;;;;;;;29.46;35.66;101342.91;143720;684;48002;-62
2021/09/11 11:33:07;;;;;;;4.95;3.08;;;;;;;29.31;37.47;101340.44;143726;618;45924;-62